• Join FlightAware (Why Join?)
  • Login
  • US Flag 
05:56PM EDT


 

Airport Tracker/Info


-or-


 

Live Flight TrackerFlight Track Log ✈ QFA581 ✈ 20-Sep-2013 ✈ YSSY / SYD - YPPH / PER

Flight Track Log - Related Links

Times and Time Zones

All times are in EDT time to prevent confusion due to time zone crossing. See the QFA581 flight status page for this flight to view local times or setup timezone preferences in your user account.

Time Position Orientation Groundspeed Altitude Reporting Facility
EDT Latitude Longitude Course Direction KTS MPH feet Rate Location/Type
08:28PM -33.9640 151.1790 180° South  Level FlightAware
08:30PM -33.9031 150.9652 289° West  Level FlightAware Approximate
08:31PM -33.8698 150.8487 289° West  Level FlightAware Approximate
08:32PM -33.9560 151.1790 353° North 98 113 200  Level FlightAware
08:32PM -33.9430 151.1750 346° North 162 186 300 1,020 Climbing FlightAware
08:32PM -33.9320 151.1730 351° North 151 174 800 1,980 Climbing FlightAware
08:33PM -33.9150 151.1650 339° North 154 177 1,600 1,500 Climbing FlightAware
08:33PM -33.9100 151.1570 307° West 170 196 1,700 780 Climbing FlightAware
08:33PM -33.9010 151.1400 303° West 195 224 2,000 1,200 Climbing FlightAware
08:33PM -33.8930 151.1250 303° West 214 246 2,400 2,520 Climbing FlightAware
08:34PM -33.8820 151.1060 305° West 217 250 3,500 3,300 Climbing FlightAware
08:34PM -33.8720 151.0850 300° West 217 250 4,600 3,000 Climbing FlightAware
08:35PM -33.8570 151.0580 304° West 224 258 5,800 2,760 Climbing FlightAware
08:35PM -33.8460 151.0370 302° West 236 272 6,700 3,240 Climbing FlightAware
08:35PM -33.8400 151.0250 301° West 223 257 7,500 4,200 Climbing FlightAware
08:35PM -33.8300 151.0040 300° West 213 245 8,800 3,780 Climbing FlightAware
08:36PM -33.8270 150.9880 283° West 211 243 9,600 2,880 Climbing FlightAware
08:36PM -33.8220 150.9510 279° West 224 258 11,000 2,400 Climbing FlightAware
08:37PM -33.8150 150.9100 282° West 242 278 12,200 3,000 Climbing FlightAware
08:37PM -33.8070 150.8600 281° West 224 258 14,500 2,580 Climbing FlightAware
08:38PM -33.7989 150.8175 281° West 231 266 15,100 1,260 Climbing Aus ATC (RADAR)
08:38PM -33.7970 150.8050 281° West 265 305 15,400 1,380 Climbing FlightAware
08:38PM -33.7900 150.7600 281° West 294 338 16,000 1,440 Climbing FlightAware
08:39PM -33.7800 150.7040 282° West 317 365 17,000 2,280 Climbing FlightAware
08:40PM -33.7680 150.6360 282° West 323 372 18,800 2,640 Climbing FlightAware
08:40PM -33.7600 150.5850 281° West 327 376 20,000 2,280 Climbing FlightAware
08:41PM -33.7470 150.5120 282° West 332 382 21,500 2,340 Climbing FlightAware
08:41PM -33.7360 150.4450 281° West 333 383 23,000 2,220 Climbing FlightAware
08:42PM -33.7260 150.3860 282° West 340 391 24,000 2,520 Climbing FlightAware
08:43PM -33.7160 150.3220 281° West 328 377 25,800 2,400 Climbing FlightAware
08:43PM -33.7133 150.2660 281° West 308 354 26,700 1,680 Climbing Aus ATC (RADAR)
08:43PM -33.7160 150.2410 281° West 324 373 27,100 1,080 Climbing FlightAware
08:44PM -33.7220 150.1760 264° West 341 392 27,600 840 Climbing FlightAware
08:44PM -33.7280 150.1080 264° West 356 410 28,100 1,080 Climbing FlightAware
08:45PM -33.7340 150.0390 264° West 362 417 28,900 1,020 Climbing FlightAware
08:46PM -33.7400 149.9660 264° West 376 433 29,300 840 Climbing FlightAware
08:46PM -33.7470 149.8930 263° West 384 442 29,900 1,320 Climbing FlightAware
08:47PM -33.7530 149.8190 264° West 379 436 30,900 1,260 Climbing FlightAware
08:47PM -33.7590 149.7460 264° West 387 445 31,400 840 Climbing FlightAware
08:48PM -33.7660 149.6690 264° West 394 453 31,900 1,020 Climbing FlightAware
08:49PM -33.7720 149.5920 265° West 396 456 32,600 1,020 Climbing FlightAware
08:49PM -33.7790 149.5150 264° West 401 461 33,100 900 Climbing FlightAware
08:50PM -33.7850 149.4370 265° West 402 463 33,700 1,020 Climbing FlightAware
08:50PM -33.7910 149.3600 265° West 400 460 34,300 900 Climbing FlightAware
08:51PM -33.7980 149.2820 264° West 404 465 34,800 1,020 Climbing FlightAware
08:51PM -33.8040 149.2040 265° West 399 459 35,500 900 Climbing FlightAware
08:52PM -33.8100 149.1260 265° West 397 457 35,900 480 Climbing FlightAware
08:53PM -33.8170 149.0380 265° West 404 465 36,100 120 Climbing FlightAware
08:53PM -33.8230 148.9715 265° West 397 457 36,100 480 Level Aus ATC (RADAR)
08:53PM -33.8240 148.9600 265° West 406 467 36,400 780 Climbing FlightAware
08:54PM -33.8310 148.8690 265° West 407 468 36,700 420 Climbing FlightAware
08:54PM -33.8360 148.8010 265° West 408 470 36,900 540 Climbing FlightAware
08:55PM -33.8420 148.7230 265° West 408 470 37,300 600 Climbing FlightAware
08:56PM -33.8490 148.6430 264° West 407 468 37,600 540 Climbing FlightAware
08:56PM -33.8630 148.5550 259° West 406 467 38,000 300 Climbing FlightAware
08:57PM -33.8740 148.4880 259° West 410 472 38,000  Level FlightAware
08:57PM -33.8870 148.4100 259° West 418 481 38,000  Level FlightAware
08:58PM -33.9020 148.3170 259° West 422 486 38,000  Level FlightAware
08:59PM -33.9140 148.2470 258° West 426 490 38,000  Level FlightAware
08:59PM -33.9270 148.1660 259° West 423 487 38,000  Level FlightAware
09:00PM -33.9420 148.0740 259° West 421 484 38,000  Level FlightAware
09:00PM -33.9530 148.0060 259° West 420 483 38,000  Level FlightAware
09:01PM -33.9660 147.9250 259° West 420 483 38,000  Level FlightAware
09:01PM -33.9790 147.8450 259° West 420 483 38,000  Level FlightAware
09:02PM -33.9920 147.7640 259° West 420 483 38,000  Level FlightAware
09:03PM -34.0040 147.6830 260° West 418 481 38,000  Level FlightAware
09:03PM -34.0190 147.5920 259° West 417 480 38,000 -120 Level FlightAware
09:04PM -34.0316 147.5148 259° West 412 474 37,900  Descending Aus ATC (RADAR)
09:04PM -34.0310 147.5110 259° West 417 480 38,000  Climbing FlightAware
09:04PM -34.0424 147.4459 259° West 414 476 37,900  Descending Aus ATC (RADAR)
09:04PM -34.0420 147.4430 259° West 416 479 38,000 120 Climbing FlightAware
09:05PM -34.0550 147.3630 259° West 414 476 38,000  Level FlightAware
09:06PM -34.0690 147.2710 260° West 420 483 38,000  Level FlightAware
09:06PM -34.0800 147.2010 259° West 422 486 38,000 -120 Level FlightAware
09:07PM -34.0924 147.1244 259° West 416 479 37,900  Descending Aus ATC (RADAR)
09:07PM -34.0960 147.0980 259° West 421 484 38,000 120 Climbing FlightAware
09:07PM -34.1080 147.0160 260° West 420 483 38,000  Level FlightAware
09:08PM -34.1200 146.9360 260° West 417 480 38,000  Level FlightAware
09:09PM -34.1340 146.8440 260° West 415 478 38,000  Level FlightAware
09:09PM -34.1450 146.7760 259° West 415 478 38,000  Level FlightAware
09:10PM -34.1570 146.6940 260° West 414 476 38,000  Level FlightAware
09:10PM -34.1690 146.6160 259° West 414 476 38,000  Level FlightAware
09:11PM -34.1830 146.5180 260° West 415 478 38,000  Level FlightAware
09:12PM -34.1960 146.4340 259° West 412 474 38,000  Level FlightAware
09:12PM -34.2070 146.3540 261° West 407 468 38,000  Level FlightAware
09:13PM -34.2170 146.2860 260° West 402 463 38,000  Level FlightAware
09:13PM -34.2280 146.2100 260° West 400 460 38,000  Level FlightAware
09:14PM -34.2410 146.1230 260° West 400 460 38,000  Level FlightAware
09:15PM -34.2510 146.0560 260° West 400 460 38,000  Level FlightAware
09:15PM -34.2610 145.9780 261° West 400 460 38,000  Level FlightAware
09:16PM -34.2700 145.9000 262° West 402 463 38,000  Level FlightAware
09:16PM -34.2800 145.8210 261° West 405 466 38,000  Level FlightAware
09:17PM -34.2910 145.7320 261° West 407 468 38,000  Level FlightAware
09:17PM -34.2990 145.6630 261° West 409 471 38,000 -240 Level FlightAware
09:17PM -34.3001 145.6600 261° West 406 467 37,900  Descending Aus ATC (RADAR)
09:18PM -34.3080 145.5850 262° West 407 468 38,000 60 Climbing FlightAware
09:19PM -34.3180 145.5050 261° West 406 467 38,000  Level FlightAware
09:19PM -34.3270 145.4280 262° West 404 465 38,000  Level FlightAware
09:20PM -34.3370 145.3480 261° West 402 463 38,000  Level FlightAware
09:20PM -34.3460 145.2720 262° West 400 460 38,000  Level FlightAware
09:21PM -34.3550 145.1930 262° West 401 461 38,000  Level FlightAware
09:22PM -34.3650 145.1050 262° West 403 464 38,000  Level FlightAware
09:22PM -34.3750 145.0250 261° West 404 465 38,000  Level FlightAware
09:23PM -34.3820 144.9590 263° West 405 466 38,000  Level FlightAware
09:23PM -34.3920 144.8780 261° West 406 467 38,000 -120 Level FlightAware
09:24PM -34.4015 144.7973 261° West 403 464 37,900  Descending Aus ATC (RADAR)
09:24PM -34.4020 144.7900 261° West 407 468 38,000 120 Climbing FlightAware
09:24PM -34.4100 144.7200 262° West 409 471 38,000  Level FlightAware
09:25PM -34.4180 144.6410 263° West 410 472 38,000  Level FlightAware
09:26PM -34.4280 144.5600 261° West 415 478 38,000  Level FlightAware
09:26PM -34.4380 144.4690 262° West 414 476 38,000  Level FlightAware
09:27PM -34.4460 144.3990 262° West 415 478 38,000  Level FlightAware
09:27PM -34.4560 144.3080 262° West 414 476 38,000  Level FlightAware
09:28PM -34.4650 144.2260 262° West 413 475 38,000  Level FlightAware
09:29PM -34.4720 144.1580 263° West 413 475 38,000  Level FlightAware
09:29PM -34.4810 144.0770 262° West 412 474 38,000  Level FlightAware
09:30PM -34.4890 143.9970 263° West 411 473 38,000  Level FlightAware
09:30PM -34.4980 143.9170 262° West 407 468 38,000 60 Level FlightAware
09:31PM -34.5058 143.8486 262° West 403 464 38,100  Climbing Aus ATC (RADAR)
09:31PM -34.5070 143.8290 262° West 405 466 38,000 -180 Descending FlightAware
09:31PM -34.5140 143.7600 263° West 402 463 38,000  Level FlightAware
09:32PM -34.5240 143.6700 262° West 398 458 38,000 60 Level FlightAware
09:33PM -34.5312 143.6043 262° West 394 453 38,100  Climbing Aus ATC (RADAR)
09:33PM -34.5320 143.5950 262° West 396 456 38,000 -180 Descending FlightAware
09:33PM -34.5390 143.5270 263° West 397 457 38,000 60 Level FlightAware
09:34PM -34.5461 143.4614 263° West 393 452 38,100  Climbing Aus ATC (RADAR)
09:34PM -34.5470 143.4510 263° West 398 458 38,000 -180 Descending FlightAware
09:34PM -34.5560 143.3620 263° West 397 457 38,000  Level FlightAware
09:35PM -34.5650 143.2740 263° West 399 459 38,000  Level FlightAware
09:36PM -34.5720 143.1960 264° West 399 459 38,000 60 Level FlightAware
09:36PM -34.5809 143.1178 264° West 398 458 38,100  Climbing Aus ATC (RADAR)
09:36PM -34.5800 143.1180 264° West 400 460 38,000  Descending FlightAware
09:37PM -34.5886 143.0401 264° West 396 456 38,100  Climbing Aus ATC (RADAR)
09:37PM -34.5880 143.0390 264° West 398 458 38,000 -180 Descending FlightAware
09:37PM -34.5950 142.9680 263° West 396 456 38,000  Level FlightAware
09:38PM -34.6030 142.8840 263° West 394 453 38,000  Level FlightAware
09:39PM -34.6110 142.8090 263° West 393 452 38,000  Level FlightAware
09:39PM -34.6180 142.7310 264° West 391 450 38,000  Level FlightAware
09:40PM -34.6250 142.6560 264° West 388 447 38,000  Level FlightAware
09:40PM -34.6330 142.5800 263° West 386 444 38,000  Level FlightAware
09:41PM -34.6400 142.5040 264° West 385 443 38,000  Level FlightAware
09:42PM -34.6470 142.4290 264° West 384 442 38,000  Level FlightAware
09:42PM -34.6540 142.3540 264° West 384 442 38,000  Level FlightAware
09:43PM -34.6610 142.2780 264° West 383 441 38,000  Level FlightAware
09:43PM -34.6690 142.1930 263° West 382 440 38,000  Level FlightAware
09:44PM -34.6740 142.1290 265° West 383 441 38,000  Level FlightAware
09:44PM -34.6810 142.0540 264° West 383 441 38,000  Level FlightAware
09:45PM -34.6880 141.9790 264° West 382 440 38,000  Level FlightAware
09:46PM -34.6960 141.8900 264° West 381 438 38,000  Level FlightAware
09:46PM -34.7010 141.8270 264° West 381 438 38,000  Level FlightAware
09:47PM -34.7080 141.7520 264° West 381 438 38,000  Level FlightAware
09:47PM -34.7150 141.6760 264° West 381 438 38,000  Level FlightAware
09:48PM -34.7210 141.6010 264° West 379 436 38,000  Level FlightAware
09:49PM -34.7280 141.5260 264° West 380 437 38,000  Level FlightAware
09:49PM -34.7340 141.4530 264° West 380 437 38,000  Level FlightAware
09:50PM -34.7400 141.3760 265° West 380 437 38,000  Level FlightAware
09:50PM -34.7470 141.2920 264° West 381 438 38,000  Level FlightAware
09:51PM -34.7530 141.2220 264° West 382 440 38,000  Level FlightAware
09:52PM -34.7600 141.1350 264° West 383 441 38,000  Level FlightAware
09:52PM -34.7650 141.0780 264° West 383 441 38,000  Level FlightAware
09:53PM -34.7720 140.9930 264° West 383 441 38,000  Level FlightAware
09:54PM -34.7800 140.8950 264° West 385 443 38,000  Level FlightAware
09:54PM -34.7840 140.8400 265° West 385 443 38,000  Level FlightAware
09:55PM -34.7910 140.7510 265° West 386 444 38,000  Level FlightAware
09:55PM -34.7970 140.6760 264° West 386 444 38,000  Level FlightAware
09:56PM -34.8030 140.5990 265° West 387 445 38,000  Level FlightAware
09:56PM -34.8090 140.5260 264° West 386 444 38,000 60 Level FlightAware
09:57PM -34.8150 140.4530 264° West 384 442 38,100  Climbing Aus ATC (RADAR)
09:57PM -34.8150 140.4470 264° West 385 443 38,000 -180 Descending FlightAware
09:58PM -34.8210 140.3700 265° West 384 442 38,000  Level FlightAware
09:58PM -34.8260 140.3050 265° West 383 441 38,000 60 Level FlightAware
09:59PM -34.8319 140.2282 265° West 381 438 38,100  Climbing Aus ATC (RADAR)
09:59PM -34.8320 140.2280 265° West 383 441 38,000 -180 Descending FlightAware
09:59PM -34.8370 140.1540 265° West 384 442 38,000 120 Level FlightAware
09:59PM -34.8381 140.1425 265° West 382 440 38,100  Climbing Aus ATC (RADAR)
10:00PM -34.8450 140.0540 264° West 385 443 38,000 -120 Descending FlightAware
10:01PM -34.8500 139.9770 265° West 385 443 38,000  Level FlightAware
10:01PM -34.8550 139.9020 265° West 384 442 38,000  Level FlightAware
10:02PM -34.8610 139.8270 264° West 384 442 38,000  Level FlightAware
10:02PM -34.8660 139.7540 265° West 385 443 38,000  Level FlightAware
10:03PM -34.8720 139.6770 265° West 386 444 38,000  Level FlightAware
10:04PM -34.8770 139.6000 265° West 387 445 38,000  Level FlightAware
10:04PM -34.8820 139.5230 265° West 389 448 38,000  Level FlightAware
10:05PM -34.8870 139.4500 265° West 388 447 38,000  Level FlightAware
10:05PM -34.8930 139.3710 265° West 388 447 38,000  Level FlightAware
10:06PM -34.8980 139.2950 265° West 388 447 38,000  Level FlightAware
10:07PM -34.9040 139.2070 265° West 391 450 38,000  Level FlightAware
10:07PM -34.9080 139.1400 266° West 392 451 38,000  Level FlightAware
10:08PM -34.9130 139.0650 265° West 390 449 38,000  Level FlightAware
10:08PM -34.9180 138.9860 266° West 390 449 38,000  Level FlightAware
10:09PM -34.9230 138.9130 265° West 390 449 38,000  Level FlightAware
10:09PM -34.9280 138.8330 266° West 390 449 38,000  Level FlightAware
10:10PM -34.9330 138.7590 265° West 389 448 38,000  Level FlightAware
10:11PM -34.9380 138.6800 266° West 390 449 38,000  Level FlightAware
10:11PM -34.9420 138.6030 266° West 392 451 38,000  Level FlightAware
10:12PM -34.9470 138.5260 265° West 393 452 38,000  Level FlightAware
10:12PM -34.9520 138.4510 265° West 393 452 38,000 60 Level FlightAware
10:13PM -34.9590 138.3740 264° West 392 451 38,100 240 Climbing FlightAware
10:13PM -34.9660 138.2960 264° West 391 450 38,300 -120 Climbing FlightAware
10:14PM -34.9720 138.2170 265° West 391 450 38,000 -180 Descending FlightAware
10:15PM -34.9775 138.1476 265° West 393 452 38,100  Climbing Aus ATC (RADAR)
10:15PM -34.9780 138.1420 265° West 391 450 38,000  Descending FlightAware
10:15PM -34.9835 138.0712 265° West 390 449 38,100  Climbing Aus ATC (RADAR)
10:15PM -34.9840 138.0670 265° West 390 449 38,000 -180 Descending FlightAware
10:16PM -34.9900 137.9890 265° West 389 448 38,000  Level FlightAware
10:16PM -34.9960 137.9140 264° West 388 447 38,000  Level FlightAware
10:17PM -35.0020 137.8360 264° West 389 448 38,000 120 Level FlightAware
10:17PM -35.0023 137.8312 264° West 389 448 38,100  Climbing Aus ATC (RADAR)
10:18PM -35.0080 137.7590 265° West 391 450 38,000 -120 Descending FlightAware
10:18PM -35.0140 137.6830 264° West 390 449 38,000  Level FlightAware
10:19PM -35.0200 137.6040 265° West 389 448 38,000  Level FlightAware
10:19PM -35.0250 137.5270 265° West 388 447 38,000  Level FlightAware
10:20PM -35.0310 137.4500 265° West 389 448 38,000  Level FlightAware
10:20PM -35.0370 137.3740 264° West 391 450 38,000  Level FlightAware
10:21PM -35.0420 137.2960 266° West 392 451 38,000 420 Level FlightAware
10:22PM -35.0480 137.2210 264° West 388 447 38,500 720 Climbing FlightAware
10:22PM -35.0530 137.1440 265° West 388 447 38,900 420 Climbing FlightAware
10:23PM -35.0590 137.0680 264° West 392 451 39,000 420 Climbing FlightAware
10:23PM -35.0640 136.9890 264° West 391 450 39,400 780 Climbing FlightAware
10:23PM -35.0638 136.9895 264° West 392 451 39,500 300 Climbing Aus ATC (RADAR)
10:24PM -35.0690 136.9140 265° West 393 452 39,600 240 Climbing FlightAware
10:25PM -35.0750 136.8380 264° West 395 455 39,800 360 Climbing FlightAware
10:25PM -35.0802 136.7463 264° West 396 456 40,100 300 Climbing Aus ATC (RADAR)
10:25PM -35.0810 136.7480 264° West 396 456 40,000 -180 Descending FlightAware
10:26PM -35.0860 136.6680 266° West 396 456 40,000  Level FlightAware
10:26PM -35.0920 136.5800 265° West 393 452 40,000  Level FlightAware
10:27PM -35.0960 136.5150 266° West 390 449 40,000  Level FlightAware
10:28PM -35.1020 136.4350 265° West 391 450 40,000  Level FlightAware
10:28PM -35.1060 136.3640 266° West 389 448 40,000  Level FlightAware
10:29PM -35.1120 136.2750 265° West 388 447 40,000  Level FlightAware
10:29PM -35.1160 136.2090 266° West 387 445 40,000  Level FlightAware
10:30PM -35.1210 136.1310 265° West 387 445 40,000  Level FlightAware
10:30PM -35.1260 136.0550 265° West 387 445 40,000  Level FlightAware
10:31PM -35.1310 135.9760 266° West 388 447 40,000  Level FlightAware
10:32PM -35.1360 135.8900 266° West 389 448 40,000  Level FlightAware
10:32PM -35.1400 135.8230 266° West 389 448 40,000  Level FlightAware
10:33PM -35.1440 135.7510 266° West 389 448 40,000  Level FlightAware
10:33PM -35.1490 135.6710 266° West 389 448 40,000  Level FlightAware
10:34PM -35.1540 135.5850 266° West 389 448 40,000  Level FlightAware
10:35PM -35.1580 135.5190 266° West 390 449 40,000  Level FlightAware
10:35PM -35.1620 135.4400 266° West 391 450 40,000  Level FlightAware
10:36PM -35.1670 135.3530 266° West 391 450 40,000  Level FlightAware
10:36PM -35.1710 135.2860 266° West 391 450 40,000  Level FlightAware
10:37PM -35.1750 135.2160 266° West 390 449 40,000  Level FlightAware
10:38PM -35.1800 135.1160 266° West 389 448 40,000  Level FlightAware
10:38PM -35.1850 135.0230 266° West 388 447 40,000  Level FlightAware
10:39PM -35.1880 134.9620 267° West 388 447 40,000  Level FlightAware
10:39PM -35.1910 134.8950 267° West 388 447 40,000  Level FlightAware
10:40PM -35.1960 134.8050 266° West 387 445 40,000  Level FlightAware
10:41PM -35.2020 134.6970 266° West 387 445 40,000  Level FlightAware
10:41PM -35.2050 134.6280 267° West 387 445 40,000  Level FlightAware
10:42PM -35.2080 134.5610 267° West 387 445 40,000  Level FlightAware
10:43PM -35.2110 134.4920 267° West 387 445 40,000  Level FlightAware
10:43PM -35.2140 134.4240 267° West 387 445 40,000  Level FlightAware
10:44PM -35.2160 134.3600 268° West 387 445 40,000  Level FlightAware
10:44PM -35.2190 134.2930 267° West 387 445 40,000  Level FlightAware
10:45PM -35.2220 134.2250 267° West 387 445 40,000  Level FlightAware
10:46PM -35.2250 134.1580 267° West 387 445 40,000  Level FlightAware
10:46PM -35.2280 134.0910 267° West 387 445 40,000  Level FlightAware
10:47PM -35.2310 134.0240 267° West 387 445 40,000  Level FlightAware
10:47PM -35.2377 133.8845 267° West 389 448 40,000  Level Aus ATC (RADAR)
10:47PM -35.2340 133.9570 267° West 387 445 40,000  Level FlightAware
10:48PM -35.2360 133.8880 268° West 387 445 40,000  Level FlightAware
10:49PM -35.2390 133.8210 267° West 387 445 40,000  Level FlightAware
10:49PM -35.2478 133.5818 267° West 382 440 40,000  Level Aus ATC (RADAR)
10:49PM -35.2420 133.7520 267° West 387 445 40,000  Level FlightAware
10:50PM -35.2450 133.6850 267° West 387 445 40,000 -60 Level FlightAware
10:53PM -35.2202 133.3748 275° West  Level FlightAware Approximate
10:54PM -35.2104 133.2547 276° West  Level FlightAware Approximate
10:55PM -35.2005 133.1347 276° West  Level FlightAware Approximate
10:56PM -35.1905 133.0147 276° West  Level FlightAware Approximate
10:56PM -35.1698 132.7049 277° West 40,000  Level Aus ATC (Calculated)
10:57PM -35.1587 132.5851 276° West  Level FlightAware Approximate
10:58PM -35.1476 132.4654 276° West  Level FlightAware Approximate
10:59PM -35.1363 132.3456 277° West  Level FlightAware Approximate
11:00PM -35.1250 132.2259 277° West  Level FlightAware Approximate
11:00PM -35.1203 132.1774 278° West 40,000  Level Aus ATC (Calculated)
11:00PM -35.1203 132.1774 278° West 40,000 -60 Level Aus ATC (Calculated)
11:02PM -35.0976 131.9434 277° West  Level FlightAware Approximate
11:03PM -35.0856 131.8214 277° West  Level FlightAware Approximate
11:04PM -35.0734 131.6994 277° West  Level FlightAware Approximate
11:05PM -35.0612 131.5774 277° West  Level FlightAware Approximate
11:05PM -35.0490 131.4502 278° West 40,000  Level Aus ATC (Calculated)
11:06PM -35.0488 131.4555 277° West  Level FlightAware Approximate
11:07PM -35.0598 131.5749 96° East  Level FlightAware Approximate
11:08PM -35.0492 131.4523 276° West  Level FlightAware Approximate
11:09PM -35.0458 131.4253 277° West  Level FlightAware Approximate
11:10PM -35.0334 131.3030 277° West  Level FlightAware Approximate
11:10PM -34.9931 130.9090 279° West 40,000  Level Aus ATC (Calculated)
11:10PM -34.9834 130.8177 279° West 40,000 -60 Level Aus ATC (Calculated)
11:11PM -35.0209 131.1807 277° West  Level FlightAware Approximate
11:12PM -34.9691 130.6834 277° West  Level FlightAware Approximate
11:13PM -34.9559 130.5614 277° West  Level FlightAware Approximate
11:14PM -34.9426 130.4393 278° West  Level FlightAware Approximate
11:15PM -34.9291 130.3173 278° West  Level FlightAware Approximate
11:15PM -34.9259 130.2877 279° West 40,000  Level Aus ATC (Calculated)
11:15PM -34.9179 130.2160 279° West 40,000 -60 Level Aus ATC (Calculated)
11:17PM -34.9026 130.0799 278° West  Level FlightAware Approximate
11:18PM -34.8889 129.9580 278° West  Level FlightAware Approximate
11:19PM -34.8750 129.8362 278° West  Level FlightAware Approximate
11:20PM -34.8609 129.7144 278° West  Level FlightAware Approximate
11:20PM -34.8466 129.5913 280° West 40,000  Level Aus ATC (Calculated)
11:21PM -34.8468 129.5926 278° West  Level FlightAware Approximate
11:22PM -34.8304 129.4529 278° West  Level FlightAware Approximate
11:23PM -34.8159 129.3309 278° West  Level FlightAware Approximate
11:24PM -34.8013 129.2088 278° West  Level FlightAware Approximate
11:25PM -34.7866 129.0868 278° West  Level FlightAware Approximate
11:25PM -34.7753 128.9937 280° West 40,000  Level Aus ATC (Calculated)
11:26PM -34.7718 128.9649 278° West  Level FlightAware Approximate
11:27PM -34.7584 128.8555 278° West  Level FlightAware Approximate
11:28PM -34.7433 128.7337 279° West  Level FlightAware Approximate
11:29PM -34.7282 128.6119 279° West  Level FlightAware Approximate
11:30PM -34.7129 128.4901 279° West  Level FlightAware Approximate
11:30PM -34.6979 128.3723 280° West 40,000  Level Aus ATC (Calculated)
11:31PM -34.6974 128.3684 279° West  Level FlightAware Approximate
11:32PM -34.6803 128.2344 279° West  Level FlightAware Approximate
11:33PM -34.6646 128.1127 279° West  Level FlightAware Approximate
11:34PM -34.6488 127.9912 279° West  Level FlightAware Approximate
11:34PM -34.6377 127.9058 281° West 40,000  Level Aus ATC (Calculated)
11:36PM -34.6585 128.0659 99° East  Level FlightAware Approximate
11:36PM -34.6130 127.7175 281° West 40,000  Level Aus ATC (Calculated)
11:38PM -34.6422 127.9402 99° East  Level FlightAware Approximate
11:39PM -34.6390 127.9157 279° West  Level FlightAware Approximate
11:39PM -34.5626 127.3412 281° West 40,000  Level Aus ATC (Calculated)
11:40PM -34.6231 127.7942 279° West  Level FlightAware Approximate
11:41PM -34.5395 127.1720 279° West  Level FlightAware Approximate
11:42PM -34.5229 127.0511 279° West  Level FlightAware Approximate
11:43PM -34.5062 126.9304 280° West  Level FlightAware Approximate
11:44PM -34.4893 126.8096 280° West  Level FlightAware Approximate
11:44PM -34.4848 126.7776 282° West 40,000  Level Aus ATC (Calculated)
11:45PM -34.4724 126.6890 280° West  Level FlightAware Approximate
11:46PM -34.4607 126.6067 280° West  Level FlightAware Approximate
11:47PM -34.4436 126.4861 280° West  Level FlightAware Approximate
11:48PM -34.4263 126.3655 280° West  Level FlightAware Approximate
11:49PM -34.4089 126.2450 280° West  Level FlightAware Approximate
11:49PM -34.4045 126.2151 282° West 40,000  Level Aus ATC (Calculated)
11:50PM -34.3913 126.1246 280° West  Level FlightAware Approximate
11:51PM -34.3796 126.0445 280° West  Level FlightAware Approximate
11:52PM -34.3619 125.9241 280° West  Level FlightAware Approximate
11:53PM -34.3441 125.8038 280° West  Level FlightAware Approximate
11:54PM -34.3261 125.6836 280° West  Level FlightAware Approximate
11:54PM -34.3216 125.6536 283° West 40,000  Level Aus ATC (Calculated)
11:54PM -34.3075 125.5601 283° West 40,000 -60 Level Aus ATC (Calculated)
11:56PM -34.2869 125.4240 280° West  Level FlightAware Approximate
11:57PM -34.2677 125.2983 280° West  Level FlightAware Approximate
11:58PM -34.2485 125.1728 281° West  Level FlightAware Approximate
11:58PM -34.2506 125.1866 283° West 40,000  Level Aus ATC (Calculated)
11:59PM -34.2290 125.0472 281° West  Level FlightAware Approximate
11:59PM -34.2362 125.0933 283° West 40,000  Level Aus ATC (Calculated)
12:00AM -34.2243 125.0171 281° West  Level FlightAware Approximate
12:00AM -34.2060 124.9001 283° West 40,000  Level Aus ATC (Calculated)
12:02AM -34.2341 125.0800 101° East  Level FlightAware Approximate
12:02AM -34.1744 124.7006 284° West 40,000  Level Aus ATC (Calculated)
12:03AM -34.2164 124.9665 281° West  Level FlightAware Approximate
12:04AM -34.1524 124.5628 281° West  Level FlightAware Approximate
12:05AM -34.1323 124.4375 281° West  Level FlightAware Approximate
12:05AM -34.1265 124.4015 284° West 40,000  Level Aus ATC (Calculated)
12:06AM -34.1120 124.3124 281° West  Level FlightAware Approximate
12:07AM -34.0953 124.2096 281° West  Level FlightAware Approximate
12:08AM -34.0748 124.0845 281° West  Level FlightAware Approximate
12:09AM -34.0541 123.9595 281° West  Level FlightAware Approximate
12:10AM -34.0334 123.8346 281° West  Level FlightAware Approximate
12:10AM -34.0449 123.9037 285° West 40,000  Level Aus ATC (Calculated)
12:11AM -34.0117 123.7049 285° West 40,000 -60 Level Aus ATC (Calculated)
12:12AM -34.0126 123.7101 281° West  Level FlightAware Approximate
12:13AM -33.9868 123.5572 281° West  Level FlightAware Approximate
12:14AM -33.9657 123.4324 282° West  Level FlightAware Approximate
12:15AM -33.9444 123.3078 282° West  Level FlightAware Approximate
12:15AM -33.9613 123.4069 285° West 40,000  Level Aus ATC (Calculated)
12:17AM -33.9283 123.2137 282° West  Level FlightAware Approximate
12:18AM -33.9068 123.0891 282° West  Level FlightAware Approximate
12:19AM -33.8851 122.9646 282° West  Level FlightAware Approximate
12:20AM -33.8634 122.8402 282° West  Level FlightAware Approximate
12:20AM -33.8584 122.8120 287° West 40,000  Level Aus ATC (Calculated)
12:21AM -33.8415 122.7158 282° West  Level FlightAware Approximate
12:22AM -33.8241 122.6172 282° West  Level FlightAware Approximate
12:23AM -33.8020 122.4930 282° West  Level FlightAware Approximate
12:24AM -33.7797 122.3688 282° West  Level FlightAware Approximate
12:25AM -33.7574 122.2447 282° West  Level FlightAware Approximate
12:25AM -33.7705 122.3174 288° West 40,000  Level Aus ATC (Calculated)
12:26AM -33.7349 122.1206 282° West  Level FlightAware Approximate
12:27AM -33.7354 122.1230 282° West  Level FlightAware Approximate
12:27AM -33.7168 122.0211 289° West 40,000  Level Aus ATC (Calculated)
12:28AM -33.7036 122.0019 289° West  Level Estimated
12:29AM -33.6775 121.8830 289° West  Level FlightAware Approximate
12:30AM -33.6432 121.7631 289° West  Level FlightAware Approximate
12:30AM -33.6597 121.7528 290° West 40,000  Level Aus ATC (Calculated)
12:31AM -33.6088 121.6432 289° West  Level FlightAware Approximate
12:32AM -33.6054 121.5696 290° West  Level FlightAware Approximate
12:32AM -33.5966 121.5401 290° West 40,000  Level Aus ATC (Calculated)
12:34AM -33.5527 121.3929 290° West  Level FlightAware Approximate
12:35AM -33.5170 121.2738 290° West  Level FlightAware Approximate
12:35AM -33.5332 121.3277 290° West 40,000  Level Aus ATC (Calculated)
12:35AM -33.5119 121.2569 290° West 40,000 -60 Level Aus ATC (Calculated)
12:37AM -33.4689 121.1140 290° West  Level FlightAware Approximate
12:37AM -33.4694 121.1155 290° West 40,000  Level Aus ATC (Calculated)
12:37AM -33.4480 121.0449 290° West 40,000 -60 Level Aus ATC (Calculated)
12:38AM -33.4266 120.9743 290° West 40,000 -60 Level Aus ATC (Calculated)
12:39AM -33.4052 120.9037 290° West 40,000 -60 Level Aus ATC (Calculated)
12:40AM -33.3664 120.7763 290° West  Level FlightAware Approximate
12:41AM -33.3539 120.7355 290° West  Level FlightAware Approximate
12:41AM -33.3407 120.6923 290° West 40,000  Level Aus ATC (Calculated)
12:43AM -33.2922 120.5341 290° West  Level FlightAware Approximate
12:44AM -33.2556 120.4156 290° West  Level FlightAware Approximate
12:44AM -33.1223 119.9906 290° West 344 396 39,800  Level Aus ATC (RADAR)
12:44AM -33.0966 119.9299 297° West 345 397 39,800  Level Aus ATC (RADAR)
12:45AM -33.0749 119.8675 293° West 344 396 39,800  Level Aus ATC (RADAR)
12:46AM -33.0514 119.7848 289° West 347 399 39,800  Level Aus ATC (RADAR)
12:46AM -33.0370 119.7391 291° West 348 400 39,800  Level Aus ATC (RADAR)
12:47AM -33.0144 119.6662 290° West 348 400 39,800  Level Aus ATC (RADAR)
12:48AM -32.9895 119.5842 290° West 348 400 39,800  Level Aus ATC (RADAR)
12:48AM -32.9699 119.5208 290° West 345 397 39,800  Level Aus ATC (RADAR)
12:49AM -32.9423 119.4295 290° West 347 399 39,800  Level Aus ATC (RADAR)
12:50AM -32.9241 119.3753 292° West 346 398 39,800  Level Aus ATC (RADAR)
12:50AM -32.9037 119.3110 291° West 351 404 39,800  Level Aus ATC (RADAR)
12:51AM -32.8786 119.2376 292° West 355 409 39,800  Level Aus ATC (RADAR)
12:51AM -32.8555 119.1635 290° West 351 404 39,800 120 Level Aus ATC (RADAR)
12:52AM -32.8600 119.1620 292° West 355 409 40,000 120 Climbing FlightAware
12:52AM -32.8293 119.0821 292° West 346 398 39,900 -240 Descending Aus ATC (RADAR)
12:53AM -32.8158 119.0363 292° West 345 397 39,900 120 Level Aus ATC (RADAR)
12:53AM -32.8410 119.1030 292° West 353 406 40,000 120 Climbing FlightAware
12:53AM -32.8190 119.0350 291° West 355 409 40,000  Level FlightAware
12:54AM -32.8020 118.9810 291° West 353 406 40,000  Level FlightAware
12:55AM -32.7740 118.8950 291° West 352 405 40,000  Level FlightAware
12:55AM -32.7510 118.8250 291° West 353 406 40,000  Level FlightAware
12:56AM -32.7280 118.7530 291° West 349 402 40,000 -300 Level FlightAware
12:56AM -32.7140 118.7100 291° West 344 396 39,700 -840 Descending FlightAware
12:57AM -32.6910 118.6410 292° West 339 390 39,100 -1,740 Descending FlightAware
12:57AM -32.6489 118.5217 292° West 327 376 37,800 -1,080 Descending Aus ATC (RADAR)
12:58AM -32.6660 118.5640 292° West 339 390 38,300 -300 Climbing FlightAware
12:58AM -32.6430 118.4950 292° West 341 392 37,600 -1,080 Descending FlightAware
12:59AM -32.6230 118.4340 291° West 343 395 37,100 -1,560 Descending FlightAware
12:59AM -32.5828 118.3187 291° West 341 392 35,900 -1,080 Descending Aus ATC (RADAR)
12:59AM -32.6040 118.3760 291° West 348 400 36,500 120 Climbing FlightAware
01:00AM -32.5850 118.3190 292° West 353 406 36,000 -1,680 Descending FlightAware
01:00AM -32.5441 118.2004 292° West 345 397 34,800 -1,080 Descending Aus ATC (RADAR)
01:01AM -32.5620 118.2500 292° West 357 411 35,300 120 Climbing FlightAware
01:01AM -32.5470 118.2020 290° West 354 407 34,900 -1,020 Descending FlightAware
01:02AM -32.5190 118.1210 292° West 363 418 34,200 -1,140 Descending FlightAware
01:02AM -32.4940 118.0440 291° West 375 432 33,500 -1,620 Descending FlightAware
01:03AM -32.4496 117.9172 291° West 374 430 32,300 -960 Descending Aus ATC (RADAR)
01:03AM -32.4750 117.9870 291° West 383 441 33,000 -1,740 Climbing FlightAware
01:04AM -32.4271 117.8503 291° West 366 421 31,300 -1,020 Descending Aus ATC (RADAR)
01:04AM -32.4520 117.9200 291° West 384 442 32,400 240 Climbing FlightAware
01:04AM -32.4300 117.8540 292° West 375 432 31,500 -1,260 Descending FlightAware
01:05AM -32.4150 117.8100 292° West 360 414 31,000 -1,020 Descending FlightAware
01:05AM -32.3950 117.7480 291° West 350 403 30,400 -1,140 Descending FlightAware
01:06AM -32.3720 117.6800 292° West 367 422 29,700 -1,080 Descending FlightAware
01:07AM -32.3560 117.6250 289° West 369 425 29,200 -900 Descending FlightAware
01:07AM -32.3430 117.5660 285° West 368 423 28,700 -960 Descending FlightAware
01:08AM -32.3390 117.5040 274° West 365 420 28,200 -900 Descending FlightAware
01:08AM -32.3390 117.4490 270° West 363 418 27,800 -840 Descending FlightAware
01:09AM -32.3380 117.3900 271° West 362 417 27,300 -960 Descending FlightAware
01:09AM -32.3380 117.3180 270° West 366 421 26,700 -2,100 Descending FlightAware
01:10AM -32.3133 117.1190 270° West 351 404 24,900 -1,200 Descending Aus ATC (RADAR)
01:10AM -32.3370 117.2330 270° West 364 419 26,000 1,020 Climbing FlightAware
01:10AM -32.3300 117.1730 278° West 360 414 25,500 -900 Descending FlightAware
01:11AM -32.3180 117.1330 290° West 360 414 25,100 -1,800 Descending FlightAware
01:11AM -32.2970 117.0630 290° West 357 411 23,700 -3,000 Descending FlightAware
01:12AM -32.2930 117.0350 280° West 357 411 22,800 -2,640 Descending FlightAware
01:12AM -32.2850 116.9390 276° West 327 376 21,200 -2,040 Descending FlightAware
01:13AM -32.2780 116.8690 277° West 323 372 19,900 -1,680 Descending FlightAware
01:14AM -32.2740 116.8250 276° West 320 368 19,000 -1,740 Descending FlightAware
01:14AM -32.2690 116.7690 276° West 316 364 18,000 -4,080 Descending FlightAware
01:15AM -32.2523 116.5930 276° West 291 335 14,500 -840 Descending Aus ATC (RADAR)
01:15AM -32.2630 116.7000 276° West 312 359 17,400 -1,860 Climbing FlightAware
01:16AM -32.2436 116.5019 276° West 292 336 12,800 -3,000 Descending Aus ATC (RADAR)
01:16AM -32.2540 116.6120 276° West 306 352 15,000 1,560 Climbing FlightAware
01:16AM -32.2490 116.5500 275° West 306 352 13,800 -2,220 Descending FlightAware
01:17AM -32.2430 116.4860 276° West 303 349 12,600 -2,100 Descending FlightAware
01:18AM -32.2360 116.4180 277° West 304 350 11,300 -1,800 Descending FlightAware
01:18AM -32.2310 116.3640 276° West 301 346 10,300 -2,220 Descending FlightAware
01:19AM -32.2250 116.3080 277° West 301 346 9,200 -2,520 Descending FlightAware
01:19AM -32.2220 116.2700 275° West 282 325 8,500 -3,060 Descending FlightAware
01:20AM -32.2100 116.1470 277° West 269 310 6,300 -2,460 Descending FlightAware
01:20AM -32.2070 116.1160 277° West 242 278 6,200 -600 Descending FlightAware
01:20AM -32.2040 116.0910 278° West 234 269 5,900 -1,140 Descending FlightAware
01:21AM -32.2010 116.0530 275° West 232 267 5,300 -840 Descending FlightAware
01:21AM -32.1990 116.0320 276° West 213 245 5,300 -540 Level FlightAware
01:21AM -32.1950 116.0130 284° West 209 241 5,000 -1,080 Descending FlightAware
01:22AM -32.1890 115.9880 286° West 213 245 4,600 -1,200 Descending FlightAware
01:22AM -32.1850 115.9670 283° West 212 244 4,200 -720 Descending FlightAware
01:22AM -32.1790 115.9420 286° West 198 228 4,100 -180 Descending FlightAware
01:23AM -32.1740 115.9200 285° West 185 213 4,100  Level FlightAware
01:23AM -32.1730 115.9150 283° West 178 205 4,100  Level FlightAware
01:23AM -32.1700 115.9110 312° West 173 199 4,100 -720 Level FlightAware
01:23AM -32.1620 115.9050 328° Northwest 183 211 3,900 -1,140 Descending FlightAware
01:23AM -32.1580 115.9040 348° North 181 208 3,800 -480 Descending FlightAware
01:23AM -32.1400 115.9070 North 196 226 3,700 -480 Descending FlightAware
01:24AM -32.1260 115.9110 14° North 197 227 3,500 -900 Descending FlightAware
01:24AM -32.1050 115.9170 14° North 198 228 3,100 -1,080 Descending FlightAware
01:25AM -32.0870 115.9220 13° North 196 226 2,700 -1,080 Descending FlightAware
01:25AM -32.0670 115.9280 14° North 185 213 2,300 -960 Descending FlightAware
01:25AM -32.0490 115.9330 13° North 170 196 2,000 -1,020 Descending FlightAware
01:26AM -32.0330 115.9380 15° North 158 182 1,600 -1,020 Descending FlightAware
01:26AM -32.0220 115.9410 13° North 150 173 1,400 -720 Descending FlightAware
01:26AM -32.0060 115.9460 15° North 149 171 1,100 -840 Descending FlightAware
01:27AM -31.9910 115.9500 13° North 153 176 800 -900 Descending FlightAware
01:27AM -31.9760 115.9550 16° North 152 175 500 -840 Descending FlightAware
01:27AM -31.9650 115.9580 13° North 150 173 300 -720 Descending FlightAware
01:28AM -31.9530 115.9610 12° North 149 171 100 -720 Descending FlightAware
01:28AM -31.9410 115.9650 16° North 92 106 -300 Descending FlightAware